Time;durP1;ratioP1;P1;durP2;ratioP2;P2;SDS_P1;SDS_P2;PMS_P1;PMS_P2;Temp;Humidity;BMP_temperature;BMP_pressure;BME280_temperature;BME280_humidity;BME280_pressure;Samples;Min_cycle;Max_cycle;Signal;HPM_P1;HPM_P2
2021/06/07 00:02:19;;;;;;;16.65;13.57;;;15.10;99.90;;;;;;5011958;28;20022;-79
2021/06/07 00:04:45;;;;;;;19.25;14.82;;;15.10;99.90;;;;;;5012619;28;20037;-80
2021/06/07 00:07:12;;;;;;;17.67;13.65;;;15.10;99.90;;;;;;5011787;28;20029;-79
2021/06/07 00:09:39;;;;;;;23.15;13.38;;;15.10;99.90;;;;;;5011474;28;20494;-79
2021/06/07 00:12:10;;;;;;;16.95;14.18;;;15.10;99.90;;;;;;5012993;28;20018;-80
2021/06/07 00:14:36;;;;;;;18.63;13.50;;;15.00;99.90;;;;;;5012746;28;20030;-80
2021/06/07 00:17:04;;;;;;;18.45;13.82;;;15.00;99.90;;;;;;5012737;28;20379;-79
2021/06/07 00:19:31;;;;;;;18.00;13.82;;;15.00;99.90;;;;;;5012619;28;20037;-80
2021/06/07 00:21:58;;;;;;;14.73;12.65;;;15.10;99.90;;;;;;5011629;28;20105;-79
2021/06/07 00:24:24;;;;;;;18.77;13.57;;;14.90;99.90;;;;;;5012785;28;20471;-79
2021/06/07 00:26:50;;;;;;;24.60;14.15;;;15.00;99.90;;;;;;5011384;28;20022;-79
2021/06/07 00:29:16;;;;;;;17.13;13.10;;;15.00;99.90;;;;;;5009515;28;20025;-80
2021/06/07 00:31:42;;;;;;;17.98;13.27;;;15.00;99.90;;;;;;5012607;28;20033;-80
2021/06/07 00:34:09;;;;;;;19.55;13.70;;;15.00;99.90;;;;;;5011342;28;20105;-79
2021/06/07 00:36:35;;;;;;;19.90;13.82;;;15.00;99.90;;;;;;5012558;28;20034;-80
2021/06/07 00:39:06;;;;;;;16.30;13.35;;;14.90;99.90;;;;;;5012090;28;20042;-79
2021/06/07 00:41:32;;;;;;;20.55;13.40;;;15.10;99.90;;;;;;5012419;28;20069;-79
2021/06/07 00:44:00;;;;;;;14.57;12.80;;;15.10;99.90;;;;;;5011002;28;20022;-79
2021/06/07 00:46:27;;;;;;;16.58;13.27;;;15.00;99.90;;;;;;5011056;28;20026;-80
2021/06/07 00:48:54;;;;;;;16.60;13.55;;;15.10;99.90;;;;;;5012082;28;20431;-79
2021/06/07 00:51:20;;;;;;;26.83;12.35;;;15.00;99.90;;;;;;5012395;28;20056;-79
2021/06/07 00:53:47;;;;;;;18.55;14.25;;;15.00;99.90;;;;;;5012098;28;20034;-79
2021/06/07 00:56:13;;;;;;;17.60;13.45;;;15.10;99.90;;;;;;5011008;28;20030;-79
2021/06/07 00:58:41;;;;;;;22.38;12.50;;;15.10;99.90;;;;;;5011964;28;20044;-79
2021/06/07 01:01:11;;;;;;;19.65;15.10;;;15.10;99.90;;;;;;5010859;28;20036;-79
2021/06/07 01:03:40;;;;;;;19.00;14.18;;;15.10;99.90;;;;;;5011955;28;20373;-80
2021/06/07 01:06:07;;;;;;;17.30;13.48;;;15.10;99.90;;;;;;5010977;28;20026;-79
2021/06/07 01:08:32;;;;;;;20.80;14.38;;;15.10;99.90;;;;;;5011725;28;20034;-79
2021/06/07 01:10:59;;;;;;;17.33;13.25;;;15.00;99.90;;;;;;5010886;28;20116;-79
2021/06/07 01:13:25;;;;;;;18.20;14.57;;;15.00;99.90;;;;;;5010791;28;20080;-79
2021/06/07 01:15:53;;;;;;;20.67;14.98;;;15.00;99.90;;;;;;5010615;28;20166;-79
2021/06/07 01:18:20;;;;;;;19.23;15.35;;;15.00;99.90;;;;;;5011475;28;20026;-79
2021/06/07 01:20:50;;;;;;;18.60;14.35;;;15.00;99.90;;;;;;5012010;28;20033;-79
2021/06/07 01:23:16;;;;;;;17.80;13.85;;;15.00;99.90;;;;;;5012129;28;20525;-79
2021/06/07 01:25:43;;;;;;;18.08;13.32;;;15.00;99.90;;;;;;5011900;28;20030;-80
2021/06/07 01:28:11;;;;;;;20.33;15.45;;;14.90;99.90;;;;;;5011515;28;20041;-80
2021/06/07 01:30:41;;;;;;;18.50;15.55;;;15.00;99.90;;;;;;5012034;28;20026;-79
2021/06/07 01:33:09;;;;;;;15.07;13.30;;;15.00;99.90;;;;;;5011952;28;20036;-79
2021/06/07 01:35:36;;;;;;;18.48;13.73;;;15.00;99.90;;;;;;5010488;28;20026;-79
2021/06/07 01:38:02;;;;;;;24.80;13.95;;;14.90;99.90;;;;;;5010299;28;20044;-79
2021/06/07 01:40:39;;;;;;;21.95;15.52;;;14.90;99.90;;;;;;5011676;28;20038;-80
2021/06/07 01:43:05;;;;;;;21.65;15.52;;;14.90;99.90;;;;;;5010586;28;20112;-79
2021/06/07 01:45:33;;;;;;;17.00;13.55;;;15.00;99.90;;;;;;5012295;28;20420;-79
2021/06/07 01:48:01;;;;;;;19.08;13.52;;;14.90;99.90;;;;;;5015564;28;20018;-79
2021/06/07 01:50:27;;;;;;;16.77;14.90;;;14.90;99.90;;;;;;5015508;28;20038;-79
2021/06/07 01:52:54;;;;;;;18.83;15.15;;;14.90;99.90;;;;;;5015534;28;20433;-79
2021/06/07 01:55:23;;;;;;;20.27;14.55;;;14.90;99.90;;;;;;5015185;28;20025;-79
2021/06/07 01:57:50;;;;;;;17.50;14.70;;;14.90;99.90;;;;;;5015434;28;20037;-79
2021/06/07 02:00:39;;;;;;;22.13;14.90;;;14.90;99.90;;;;;;5013811;28;20037;-79
2021/06/07 02:03:06;;;;;;;18.83;13.20;;;14.90;99.90;;;;;;5014282;28;20026;-79
2021/06/07 02:05:35;;;;;;;18.30;15.52;;;14.80;99.90;;;;;;4993201;28;20077;-79
2021/06/07 02:08:04;;;;;;;21.58;15.88;;;14.70;99.90;;;;;;4995510;28;20105;-79
2021/06/07 02:10:33;;;;;;;20.08;15.15;;;14.80;99.90;;;;;;5013689;28;20069;-79
2021/06/07 02:12:59;;;;;;;18.30;15.00;;;14.80;99.90;;;;;;5015171;28;20109;-79
2021/06/07 02:15:25;;;;;;;18.15;14.88;;;14.80;99.90;;;;;;5015026;28;20160;-79
2021/06/07 02:17:51;;;;;;;19.45;14.43;;;14.80;99.90;;;;;;5014945;28;20041;-79
2021/06/07 02:20:22;;;;;;;19.05;15.27;;;14.80;99.90;;;;;;5014429;28;20026;-79
2021/06/07 02:22:48;;;;;;;20.25;15.60;;;14.80;99.90;;;;;;5015006;28;20052;-79
2021/06/07 02:25:16;;;;;;;20.05;14.60;;;14.70;99.90;;;;;;5013519;28;20497;-79
2021/06/07 02:27:42;;;;;;;25.42;15.70;;;14.70;99.90;;;;;;5014733;28;20029;-79
2021/06/07 02:30:11;;;;;;;20.63;15.73;;;14.70;99.90;;;;;;5014584;28;20026;-79
2021/06/07 02:32:37;;;;;;;18.85;14.50;;;14.70;99.90;;;;;;5014720;28;20030;-79
2021/06/07 02:35:08;;;;;;;22.23;16.48;;;14.70;99.90;;;;;;5029535;28;20446;-79
2021/06/07 02:37:34;;;;;;;22.77;15.85;;;14.70;99.90;;;;;;5014563;28;20045;-79
2021/06/07 02:40:00;;;;;;;19.83;15.95;;;14.70;99.90;;;;;;5012709;28;20034;-79
2021/06/07 02:42:26;;;;;;;19.92;15.48;;;14.70;99.90;;;;;;5014743;28;20030;-80
2021/06/07 02:44:51;;;;;;;21.75;14.82;;;14.70;99.90;;;;;;5013252;28;20129;-79
2021/06/07 02:47:17;;;;;;;20.60;14.90;;;14.70;99.90;;;;;;5014404;28;20022;-79
2021/06/07 02:49:43;;;;;;;19.05;16.15;;;14.70;99.90;;;;;;5014360;28;20044;-79
2021/06/07 02:52:09;;;;;;;17.40;14.30;;;14.70;99.90;;;;;;5013080;28;20510;-79
2021/06/07 02:54:35;;;;;;;19.73;14.98;;;14.70;99.90;;;;;;5014270;28;20030;-79
2021/06/07 02:57:01;;;;;;;24.15;15.32;;;14.80;99.90;;;;;;5013644;28;20037;-79
2021/06/07 02:59:26;;;;;;;17.90;14.07;;;14.70;99.90;;;;;;5012798;28;20037;-79
2021/06/07 03:01:52;;;;;;;21.63;16.40;;;14.80;99.90;;;;;;5014109;28;20073;-79
2021/06/07 03:04:18;;;;;;;17.77;14.77;;;14.70;99.90;;;;;;5013965;28;20117;-79
2021/06/07 03:06:43;;;;;;;20.10;15.25;;;14.80;99.90;;;;;;5014190;28;20022;-79
2021/06/07 03:09:10;;;;;;;21.77;16.10;;;14.70;99.90;;;;;;5012609;28;20034;-79
2021/06/07 03:11:35;;;;;;;22.85;14.80;;;14.70;99.90;;;;;;5014080;28;20018;-79
2021/06/07 03:14:01;;;;;;;19.60;15.30;;;14.70;99.90;;;;;;5013905;28;20124;-79
2021/06/07 03:16:26;;;;;;;19.35;15.75;;;14.70;99.90;;;;;;5012604;28;20111;-79
2021/06/07 03:18:52;;;;;;;19.35;15.32;;;14.70;99.90;;;;;;5013539;28;20034;-79
2021/06/07 03:21:17;;;;;;;18.27;15.70;;;14.80;99.90;;;;;;5012524;28;20030;-79
2021/06/07 03:23:44;;;;;;;20.98;15.23;;;14.80;99.90;;;;;;5013595;28;20105;-79
2021/06/07 03:26:10;;;;;;;23.67;15.18;;;14.80;99.90;;;;;;5013843;28;20048;-79
2021/06/07 03:28:37;;;;;;;22.88;16.27;;;14.80;99.90;;;;;;5012185;28;20022;-79
2021/06/07 03:31:04;;;;;;;16.90;14.57;;;14.80;99.90;;;;;;5012322;28;20079;-79
2021/06/07 03:33:30;;;;;;;18.20;14.80;;;14.90;99.90;;;;;;5013389;28;20044;-79
2021/06/07 03:35:57;;;;;;;19.23;15.30;;;14.80;99.90;;;;;;5012090;28;20030;-79
2021/06/07 03:38:28;;;;;;;19.23;14.10;;;14.80;99.90;;;;;;5012281;28;20052;-79
2021/06/07 03:40:55;;;;;;;26.33;15.00;;;14.80;99.90;;;;;;5013283;28;20034;-79
2021/06/07 03:43:24;;;;;;;19.20;14.77;;;14.80;99.90;;;;;;5013437;28;20589;-79
2021/06/07 03:45:50;;;;;;;24.17;15.50;;;14.80;99.90;;;;;;5013346;28;20026;-79
2021/06/07 03:48:16;;;;;;;17.85;14.25;;;14.80;99.90;;;;;;5011885;28;20022;-79
2021/06/07 03:50:42;;;;;;;24.83;15.05;;;14.70;99.90;;;;;;5013371;28;20045;-79
2021/06/07 03:53:09;;;;;;;21.80;16.40;;;14.70;99.90;;;;;;5012309;28;20474;-79
2021/06/07 03:55:36;;;;;;;20.85;16.77;;;14.70;99.90;;;;;;5011901;28;20029;-79
2021/06/07 03:58:02;;;;;;;19.02;14.82;;;14.80;99.90;;;;;;5011835;28;20397;-79
2021/06/07 04:00:30;;;;;;;20.17;14.98;;;14.70;99.90;;;;;;5012873;28;20042;-79
2021/06/07 04:02:57;;;;;;;22.63;15.25;;;14.80;99.90;;;;;;5013116;28;20471;-79
2021/06/07 04:05:22;;;;;;;17.30;14.63;;;14.80;99.90;;;;;;5012528;28;20026;-79
2021/06/07 04:07:49;;;;;;;21.02;15.18;;;14.80;99.90;;;;;;5013092;28;20024;-80
2021/06/07 04:10:18;;;;;;;21.73;14.65;;;14.80;99.90;;;;;;5011730;28;20083;-80
2021/06/07 04:12:46;;;;;;;21.90;14.68;;;14.80;99.90;;;;;;5011658;28;20037;-79
2021/06/07 04:15:13;;;;;;;19.23;14.88;;;14.80;99.90;;;;;;5012774;28;20032;-79
2021/06/07 04:17:39;;;;;;;18.48;14.60;;;14.80;99.90;;;;;;5011821;28;20034;-80
2021/06/07 04:20:06;;;;;;;23.23;14.82;;;14.90;99.90;;;;;;5011279;28;20033;-80
2021/06/07 04:22:32;;;;;;;22.98;14.48;;;14.80;99.90;;;;;;5028044;28;20076;-79
2021/06/07 04:24:58;;;;;;;19.58;14.82;;;14.80;99.90;;;;;;5011275;28;20026;-79
2021/06/07 04:27:23;;;;;;;17.13;14.50;;;14.80;99.90;;;;;;5012600;28;20022;-79
2021/06/07 04:29:49;;;;;;;20.65;14.95;;;14.80;99.90;;;;;;5011122;28;20022;-79
2021/06/07 04:32:15;;;;;;;26.67;16.42;;;14.80;99.90;;;;;;5011389;28;20033;-79
2021/06/07 04:34:40;;;;;;;20.92;16.20;;;14.80;99.90;;;;;;5010910;28;20030;-79
2021/06/07 04:37:07;;;;;;;18.27;14.27;;;14.70;99.90;;;;;;5012587;28;20514;-80
2021/06/07 04:39:32;;;;;;;22.67;15.52;;;14.80;99.90;;;;;;5010921;28;20030;-80
2021/06/07 04:41:58;;;;;;;19.35;13.82;;;14.80;99.90;;;;;;5012427;28;20049;-79
2021/06/07 04:44:24;;;;;;;18.17;14.05;;;14.90;99.90;;;;;;5011020;28;20113;-79
2021/06/07 04:46:50;;;;;;;15.93;13.70;;;14.90;99.90;;;;;;5012361;28;20502;-79
2021/06/07 04:49:16;;;;;;;16.83;14.57;;;14.90;99.90;;;;;;5012149;28;20026;-79
2021/06/07 04:51:41;;;;;;;20.40;15.70;;;14.80;99.90;;;;;;5012292;28;20562;-79
2021/06/07 04:54:07;;;;;;;23.30;17.15;;;14.80;99.90;;;;;;5010844;28;20038;-79
2021/06/07 04:56:33;;;;;;;20.08;15.82;;;14.80;99.90;;;;;;5012186;28;20084;-79
2021/06/07 04:58:58;;;;;;;18.95;15.95;;;14.80;99.90;;;;;;5012018;28;20034;-79
2021/06/07 05:01:24;;;;;;;17.20;14.15;;;14.80;99.90;;;;;;5012176;28;20033;-79
2021/06/07 05:03:50;;;;;;;17.02;14.27;;;14.80;99.90;;;;;;5011932;28;20076;-79
2021/06/07 05:06:15;;;;;;;22.58;15.15;;;14.80;99.90;;;;;;5010994;28;20529;-79
2021/06/07 05:08:41;;;;;;;19.70;14.57;;;14.80;99.90;;;;;;5010911;28;20543;-79
2021/06/07 05:11:06;;;;;;;21.20;14.98;;;14.80;99.90;;;;;;5012315;28;20484;-79
2021/06/07 05:13:33;;;;;;;19.13;15.00;;;14.80;99.90;;;;;;5011917;28;20029;-79
2021/06/07 05:16:01;;;;;;;19.65;14.77;;;14.90;99.90;;;;;;5011901;28;20030;-79
2021/06/07 05:18:26;;;;;;;17.77;14.05;;;14.90;99.90;;;;;;5010529;28;20037;-79
2021/06/07 05:20:52;;;;;;;21.95;14.65;;;14.90;99.90;;;;;;5013260;28;20156;-79
2021/06/07 05:23:18;;;;;;;18.27;14.85;;;14.90;99.90;;;;;;5014703;28;20025;-79
2021/06/07 05:25:44;;;;;;;20.38;15.07;;;14.90;99.90;;;;;;5015582;28;20038;-79
2021/06/07 05:28:13;;;;;;;17.13;14.00;;;14.90;99.90;;;;;;5015894;28;20025;-79
2021/06/07 05:30:41;;;;;;;18.50;14.52;;;14.90;99.90;;;;;;5031276;28;20033;-79
2021/06/07 05:33:07;;;;;;;25.88;17.45;;;14.90;99.90;;;;;;5014378;28;20029;-79
2021/06/07 05:35:37;;;;;;;20.00;14.77;;;15.10;99.90;;;;;;5014387;28;20039;-79
2021/06/07 05:38:02;;;;;;;21.50;14.55;;;15.00;99.90;;;;;;5015682;28;20033;-79
2021/06/07 05:40:29;;;;;;;17.17;13.43;;;15.00;99.90;;;;;;5015801;28;20482;-79
2021/06/07 05:42:55;;;;;;;21.88;14.43;;;15.00;99.90;;;;;;5014564;28;20040;-79
2021/06/07 05:45:21;;;;;;;19.15;14.13;;;15.10;99.90;;;;;;5015362;28;20557;-79
2021/06/07 05:47:48;;;;;;;18.25;14.10;;;15.10;99.90;;;;;;5015701;28;20545;-79
2021/06/07 05:50:17;;;;;;;18.58;13.60;;;15.10;99.90;;;;;;5014182;28;20476;-79
2021/06/07 05:52:46;;;;;;;15.45;13.10;;;15.20;99.90;;;;;;5014244;28;20033;-79
2021/06/07 05:55:27;;;;;;;21.52;13.80;;;15.30;99.90;;;;;;5013910;28;20493;-80
2021/06/07 05:57:56;;;;;;;20.15;13.75;;;15.30;99.90;;;;;;5015437;28;20036;-79
2021/06/07 06:00:25;;;;;;;18.80;13.95;;;15.30;99.90;;;;;;5015377;28;20482;-79
2021/06/07 06:02:51;;;;;;;17.85;14.00;;;15.30;99.90;;;;;;5013625;28;20054;-79
2021/06/07 06:05:17;;;;;;;16.25;12.63;;;15.30;99.90;;;;;;5029381;28;20037;-79
2021/06/07 06:07:43;;;;;;;19.20;13.32;;;15.40;99.90;;;;;;5010196;28;20026;-79
2021/06/07 06:10:10;;;;;;;16.20;12.18;;;15.40;99.90;;;;;;5010509;28;20081;-79
2021/06/07 06:12:35;;;;;;;14.93;12.93;;;15.50;99.90;;;;;;4995552;28;20109;-79
2021/06/07 06:15:03;;;;;;;21.73;14.02;;;15.60;99.90;;;;;;5008502;28;20447;-79
2021/06/07 06:17:29;;;;;;;23.15;12.82;;;15.70;99.90;;;;;;5030111;28;20033;-80
2021/06/07 06:19:55;;;;;;;21.00;13.40;;;15.80;99.90;;;;;;5014575;28;20041;-79
2021/06/07 06:22:20;;;;;;;20.70;12.85;;;15.90;99.90;;;;;;5014955;28;20450;-79
2021/06/07 06:24:46;;;;;;;20.63;12.98;;;15.90;99.90;;;;;;5014451;28;20034;-79
2021/06/07 06:27:13;;;;;;;17.10;13.20;;;15.80;99.90;;;;;;5014494;28;20057;-79
2021/06/07 06:29:39;;;;;;;15.50;12.85;;;15.80;99.90;;;;;;5014879;28;20033;-79
2021/06/07 06:32:06;;;;;;;14.68;13.13;;;15.70;99.90;;;;;;5013549;28;20030;-79
2021/06/07 06:34:32;;;;;;;19.30;13.55;;;15.80;99.90;;;;;;5013004;28;20115;-79
2021/06/07 06:36:58;;;;;;;15.90;13.10;;;15.80;99.90;;;;;;5014506;28;20490;-79
2021/06/07 06:39:24;;;;;;;24.50;11.75;;;15.90;99.90;;;;;;5013463;28;20022;-79
2021/06/07 06:41:50;;;;;;;20.20;12.35;;;15.90;99.90;;;;;;5014188;28;20036;-80
2021/06/07 06:44:16;;;;;;;16.55;12.85;;;16.00;99.90;;;;;;5014269;28;20520;-80
2021/06/07 06:46:41;;;;;;;15.68;11.75;;;16.10;99.90;;;;;;5014176;28;20117;-79
2021/06/07 06:49:07;;;;;;;21.23;12.73;;;16.10;99.90;;;;;;5012831;28;20028;-79
2021/06/07 06:51:33;;;;;;;15.43;11.48;;;16.20;99.90;;;;;;5013107;28;20026;-79
2021/06/07 06:53:59;;;;;;;15.60;12.30;;;16.20;99.90;;;;;;5014261;28;20026;-79
2021/06/07 06:56:25;;;;;;;19.33;11.77;;;16.30;99.90;;;;;;5014015;28;20029;-79
2021/06/07 06:58:50;;;;;;;15.38;12.25;;;16.40;99.90;;;;;;5013009;28;20041;-80
2021/06/07 07:01:17;;;;;;;14.35;11.35;;;16.30;99.90;;;;;;5014015;28;20033;-79
2021/06/07 07:03:44;;;;;;;19.02;12.43;;;16.30;99.90;;;;;;5012583;28;20046;-79
2021/06/07 07:06:09;;;;;;;16.73;12.63;;;16.50;99.90;;;;;;5012795;28;20037;-79
2021/06/07 07:08:35;;;;;;;14.00;11.95;;;16.40;99.90;;;;;;5013889;28;20022;-79
2021/06/07 07:11:01;;;;;;;16.10;12.73;;;16.40;99.90;;;;;;5012656;28;20041;-80
2021/06/07 07:13:26;;;;;;;17.80;13.73;;;16.40;99.90;;;;;;5013914;28;20065;-79
2021/06/07 07:15:52;;;;;;;22.00;13.82;;;16.30;99.90;;;;;;4994040;28;20037;-79
2021/06/07 07:18:18;;;;;;;20.88;14.13;;;16.30;99.90;;;;;;4994736;28;20073;-80
2021/06/07 07:20:43;;;;;;;23.55;13.25;;;16.30;99.90;;;;;;5013718;28;20036;-79
2021/06/07 07:23:10;;;;;;;19.70;14.63;;;16.20;99.90;;;;;;5013900;28;20029;-79
2021/06/07 07:25:37;;;;;;;15.10;12.57;;;16.40;99.90;;;;;;5012170;28;20036;-79
2021/06/07 07:28:07;;;;;;;16.48;13.88;;;16.30;99.90;;;;;;5012320;28;20467;-79
2021/06/07 07:30:34;;;;;;;16.63;14.65;;;16.30;99.90;;;;;;5012462;28;20539;-79
2021/06/07 07:33:01;;;;;;;21.77;15.35;;;16.30;99.90;;;;;;5013769;28;20026;-79
2021/06/07 07:35:28;;;;;;;19.38;13.88;;;16.30;99.90;;;;;;5012772;28;20032;-79
2021/06/07 07:37:54;;;;;;;20.88;14.73;;;16.30;99.90;;;;;;5028767;28;20038;-80
2021/06/07 07:40:22;;;;;;;21.02;15.13;;;16.40;99.90;;;;;;5012207;28;20026;-80
2021/06/07 07:42:48;;;;;;;17.85;15.07;;;16.30;99.90;;;;;;5012122;28;20485;-79
2021/06/07 07:45:18;;;;;;;18.13;13.88;;;16.30;99.90;;;;;;5012647;28;20654;-79
2021/06/07 07:47:44;;;;;;;22.52;14.60;;;16.30;99.90;;;;;;5011986;28;20024;-79
2021/06/07 07:50:13;;;;;;;21.17;14.95;;;16.40;99.90;;;;;;5013117;28;20109;-79
2021/06/07 07:52:41;;;;;;;22.45;14.45;;;16.30;99.90;;;;;;5011842;28;20072;-79
2021/06/07 07:55:13;;;;;;;18.58;14.70;;;16.30;99.90;;;;;;5012960;28;20108;-80
2021/06/07 07:57:41;;;;;;;22.27;14.82;;;16.40;99.90;;;;;;5011510;28;20030;-81
2021/06/07 08:00:09;;;;;;;17.27;14.23;;;16.40;99.90;;;;;;5011631;28;20057;-80
2021/06/07 08:02:35;;;;;;;17.10;13.55;;;16.50;99.90;;;;;;5020100;28;20030;-80
2021/06/07 08:05:00;;;;;;;19.73;14.88;;;16.50;99.90;;;;;;5001028;28;20467;-79
2021/06/07 08:07:26;;;;;;;17.98;14.32;;;16.70;99.90;;;;;;4993414;28;20031;-79
2021/06/07 08:09:52;;;;;;;15.50;12.73;;;16.80;99.90;;;;;;5018549;28;20057;-79
2021/06/07 08:12:17;;;;;;;17.80;13.48;;;17.00;99.90;;;;;;5012392;28;20097;-79
2021/06/07 08:14:43;;;;;;;20.65;13.25;;;17.20;99.90;;;;;;5012836;28;20032;-78
2021/06/07 08:17:10;;;;;;;15.75;12.85;;;17.30;99.90;;;;;;5011590;28;20429;-79
2021/06/07 08:19:36;;;;;;;17.27;13.43;;;17.40;99.90;;;;;;5009902;28;20549;-79
2021/06/07 08:22:02;;;;;;;14.05;12.45;;;17.30;99.90;;;;;;5012768;28;20052;-78
2021/06/07 08:24:27;;;;;;;20.95;13.30;;;17.40;99.90;;;;;;5012493;28;20068;-78
2021/06/07 08:26:53;;;;;;;14.77;11.43;;;17.30;99.90;;;;;;4996774;28;20057;-78
2021/06/07 08:29:18;;;;;;;21.00;12.55;;;17.50;99.90;;;;;;4996483;28;20022;-79
2021/06/07 08:31:44;;;;;;;20.00;13.40;;;17.60;99.90;;;;;;5003992;28;20093;-80
2021/06/07 08:34:10;;;;;;;17.08;12.80;;;17.60;99.90;;;;;;5008642;28;20046;-81
2021/06/07 08:36:35;;;;;;;19.33;11.38;;;17.60;99.90;;;;;;5009045;28;20038;-80
2021/06/07 08:39:02;;;;;;;21.10;12.25;;;17.70;99.90;;;;;;5009064;28;20107;-80
2021/06/07 08:41:27;;;;;;;15.73;11.70;;;17.90;99.90;;;;;;5007641;28;20021;-81
2021/06/07 08:43:53;;;;;;;16.45;13.68;;;17.80;99.90;;;;;;5010960;28;20044;-80
2021/06/07 08:46:19;;;;;;;18.50;12.63;;;17.70;99.90;;;;;;5006952;28;20105;-81
2021/06/07 08:48:44;;;;;;;19.95;12.93;;;17.70;99.90;;;;;;5008167;28;20026;-81
2021/06/07 08:51:10;;;;;;;21.02;12.75;;;17.60;99.90;;;;;;5008102;28;20025;-80
2021/06/07 08:53:37;;;;;;;14.35;12.07;;;17.80;99.90;;;;;;5007998;28;20026;-81
2021/06/07 08:56:04;;;;;;;22.48;13.43;;;17.70;99.90;;;;;;5010042;28;20069;-80
2021/06/07 08:58:29;;;;;;;16.58;13.13;;;17.70;99.90;;;;;;5003871;28;20080;-80
2021/06/07 09:00:55;;;;;;;20.23;13.07;;;17.80;99.90;;;;;;5006713;28;20029;-81
2021/06/07 09:03:22;;;;;;;17.50;12.82;;;17.80;99.90;;;;;;5007805;28;20494;-80
2021/06/07 09:05:57;;;;;;;16.80;13.20;;;17.90;99.90;;;;;;5012044;28;20018;-81
2021/06/07 09:08:28;;;;;;;19.73;13.88;;;17.90;99.90;;;;;;5011905;28;20052;-80
2021/06/07 09:10:54;;;;;;;21.15;12.68;;;18.10;99.90;;;;;;5012007;28;20033;-80
2021/06/07 09:13:22;;;;;;;20.20;13.48;;;18.00;99.90;;;;;;5012178;28;20022;-80
2021/06/07 09:15:55;;;;;;;23.23;14.85;;;18.40;99.90;;;;;;5011944;28;20109;-80
2021/06/07 09:18:33;;;;;;;15.90;13.70;;;18.40;99.90;;;;;;5027201;28;20398;-80
2021/06/07 09:21:28;;;;;;;17.67;13.85;;;18.50;99.90;;;;;;5011941;28;20116;-80
2021/06/07 09:23:56;;;;;;;17.27;13.55;;;18.70;99.90;;;;;;5011886;28;20656;-81
2021/06/07 09:26:38;;;;;;;24.10;14.00;;;18.90;99.90;;;;;;5011913;28;20130;-81
2021/06/07 09:29:23;;;;;;;19.38;14.65;;;18.90;99.90;;;;;;5011918;28;20018;-79
2021/06/07 09:31:55;;;;;;;19.63;13.60;;;19.00;99.90;;;;;;5010642;28;20447;-80
2021/06/07 09:34:30;;;;;;;17.17;13.15;;;19.10;99.90;;;;;;5010259;28;20018;-80
2021/06/07 09:37:10;;;;;;;19.30;12.93;;;19.20;99.90;;;;;;5011733;28;20080;-80
2021/06/07 09:39:37;;;;;;;22.20;13.65;;;19.10;99.90;;;;;;5011770;28;20028;-80
2021/06/07 09:42:08;;;;;;;19.80;14.20;;;19.30;99.90;;;;;;5026923;28;20025;-80
2021/06/07 09:44:48;;;;;;;17.35;12.70;;;19.40;99.90;;;;;;5010170;28;20021;-80
2021/06/07 09:47:25;;;;;;;17.40;12.48;;;19.50;99.90;;;;;;5011650;28;20022;-80
2021/06/07 09:49:55;;;;;;;15.48;13.48;;;19.60;99.90;;;;;;5010575;28;20045;-80
2021/06/07 09:52:27;;;;;;;15.52;13.68;;;19.50;99.90;;;;;;5010336;28;20564;-80
2021/06/07 09:55:04;;;;;;;20.13;14.25;;;19.60;99.90;;;;;;5011517;28;20025;-80
2021/06/07 09:57:49;;;;;;;21.63;13.82;;;19.80;99.90;;;;;;5011235;28;20536;-80
2021/06/07 10:00:41;;;;;;;20.40;13.48;;;20.10;99.90;;;;;;5019448;28;20116;-79
2021/06/07 10:03:27;;;;;;;21.30;14.18;;;20.50;99.90;;;;;;5011785;28;20018;-80
2021/06/07 10:06:00;;;;;;;16.70;14.57;;;20.40;99.90;;;;;;5011423;28;20022;-80
2021/06/07 10:08:43;;;;;;;19.52;14.35;;;20.30;99.90;;;;;;5013965;28;20509;-80
2021/06/07 10:11:18;;;;;;;16.75;13.27;;;20.30;99.90;;;;;;5030506;28;20524;-79
2021/06/07 10:13:44;;;;;;;17.05;12.88;;;20.50;99.90;;;;;;5003809;28;20026;-80
2021/06/07 10:16:10;;;;;;;23.13;13.63;;;20.80;99.90;;;;;;4996245;28;20501;-80
2021/06/07 10:18:36;;;;;;;15.52;13.25;;;21.10;99.90;;;;;;4996332;28;20037;-80
2021/06/07 10:21:04;;;;;;;20.27;13.02;;;21.50;99.90;;;;;;4995708;28;20054;-80
2021/06/07 10:23:32;;;;;;;14.80;11.27;;;21.80;99.90;;;;;;4994376;28;20026;-78
2021/06/07 10:26:00;;;;;;;16.45;10.68;;;22.30;99.90;;;;;;4995190;28;20040;-78
2021/06/07 10:28:28;;;;;;;12.70;11.35;;;22.60;99.90;;;;;;4994995;28;20022;-78
2021/06/07 10:30:56;;;;;;;14.68;11.07;;;23.00;99.90;;;;;;4993981;28;20479;-78
2021/06/07 10:33:30;;;;;;;14.57;10.90;;;23.20;99.90;;;;;;4993819;28;20033;-78
2021/06/07 10:36:17;;;;;;;15.23;10.25;;;23.50;99.90;;;;;;4994673;28;20030;-79
2021/06/07 10:38:42;;;;;;;18.33;10.93;;;23.60;99.90;;;;;;4994787;28;20105;-80
2021/06/07 10:41:26;;;;;;;24.55;11.00;;;23.50;99.90;;;;;;4994760;28;20113;-80
2021/06/07 10:43:54;;;;;;;14.95;10.20;;;23.40;99.90;;;;;;4994718;28;20027;-79
2021/06/07 10:46:22;;;;;;;15.48;10.98;;;23.10;99.90;;;;;;4993480;28;20023;-78
2021/06/07 10:48:52;;;;;;;13.98;9.43;;;22.70;99.90;;;;;;4994725;28;20069;-78
2021/06/07 10:51:20;;;;;;;14.95;10.38;;;22.80;99.90;;;;;;4995959;28;20025;-79
2021/06/07 10:53:46;;;;;;;13.20;9.13;;;22.90;99.90;;;;;;5014016;28;20075;-79
2021/06/07 10:56:13;;;;;;;12.48;8.95;;;23.30;99.90;;;;;;5006253;28;20022;-80
2021/06/07 10:58:57;;;;;;;19.05;11.48;;;23.30;99.90;;;;;;5011467;28;20073;-79
2021/06/07 11:01:23;;;;;;;16.58;11.32;;;23.30;99.90;;;;;;5006021;28;20022;-79
2021/06/07 11:03:59;;;;;;;17.33;10.55;;;23.30;99.90;;;;;;5008545;28;20077;-79
2021/06/07 11:06:28;;;;;;;15.80;8.98;;;23.00;99.90;;;;;;5009813;28;20028;-80
2021/06/07 11:09:06;;;;;;;13.85;10.30;;;23.10;99.90;;;;;;5008583;28;20026;-80
2021/06/07 11:11:48;;;;;;;14.57;10.30;;;23.30;99.90;;;;;;5008952;28;20148;-79
2021/06/07 11:14:15;;;;;;;14.35;11.45;;;23.30;99.90;;;;;;5010758;28;20068;-79
2021/06/07 11:16:43;;;;;;;11.52;9.52;;;23.10;99.90;;;;;;5010873;28;20026;-80
2021/06/07 11:19:11;;;;;;;14.73;9.82;;;23.30;99.90;;;;;;5010038;28;20022;-79
2021/06/07 11:21:45;;;;;;;19.30;10.20;;;23.30;99.90;;;;;;5009205;28;20033;-79
2021/06/07 11:24:30;;;;;;;13.80;10.48;;;23.10;99.90;;;;;;5011304;28;20021;-79
2021/06/07 11:26:57;;;;;;;12.35;11.07;;;23.00;99.90;;;;;;5002447;28;20030;-79
2021/06/07 11:29:22;;;;;;;13.18;8.90;;;23.20;99.90;;;;;;5011266;28;20025;-79
2021/06/07 11:32:10;;;;;;;13.30;9.80;;;23.60;99.90;;;;;;5010755;28;20108;-80
2021/06/07 11:34:38;;;;;;;12.10;9.88;;;23.60;99.90;;;;;;5008992;28;20038;-81
2021/06/07 11:37:05;;;;;;;14.65;11.75;;;23.40;99.90;;;;;;5010428;28;20038;-79
2021/06/07 11:39:42;;;;;;;14.80;11.23;;;23.20;99.90;;;;;;5008866;28;20040;-79
2021/06/07 11:42:10;;;;;;;15.35;10.90;;;23.10;99.90;;;;;;5009995;28;20032;-79
2021/06/07 11:44:53;;;;;;;17.23;12.02;;;22.90;99.90;;;;;;5009974;28;20084;-80
2021/06/07 11:47:21;;;;;;;13.82;10.15;;;22.70;99.90;;;;;;5010262;28;20017;-80
2021/06/07 11:49:59;;;;;;;14.68;9.27;;;22.60;99.90;;;;;;5008996;28;20030;-79
2021/06/07 11:52:36;;;;;;;17.77;11.27;;;22.50;99.90;;;;;;5009839;28;20390;-80
2021/06/07 11:55:28;;;;;;;14.90;12.02;;;22.80;99.90;;;;;;5009655;28;20081;-79
2021/06/07 11:58:09;;;;;;;14.70;10.65;;;22.60;99.90;;;;;;5001153;28;20022;-79
2021/06/07 12:00:41;;;;;;;12.52;11.02;;;22.90;99.90;;;;;;5009714;28;20040;-78
2021/06/07 12:03:09;;;;;;;13.73;9.25;;;23.00;99.90;;;;;;5008476;28;20018;-78
2021/06/07 12:05:35;;;;;;;11.52;10.35;;;24.00;99.90;;;;;;5007922;28;20026;-79
2021/06/07 12:08:06;;;;;;;22.27;9.77;;;25.00;99.90;;;;;;5009805;28;20034;-79
2021/06/07 12:10:33;;;;;;;19.85;10.68;;;25.10;99.90;;;;;;5009479;28;20091;-79
2021/06/07 12:13:18;;;;;;;16.98;8.65;;;25.40;99.90;;;;;;5008058;28;20050;-79
2021/06/07 12:15:49;;;;;;;13.43;9.57;;;24.90;99.90;;;;;;5008384;28;20026;-79
2021/06/07 12:18:31;;;;;;;11.90;9.20;;;24.50;99.90;;;;;;5009718;28;20096;-79
2021/06/07 12:21:16;;;;;;;16.05;10.10;;;24.90;99.90;;;;;;5009462;28;20018;-80
2021/06/07 12:23:59;;;;;;;13.10;8.70;;;25.10;99.90;;;;;;5008265;28;20117;-79
2021/06/07 12:29:22;;;;;;;21.90;10.15;;;25.50;99.90;;;;;;5010014;28;20529;-79
2021/06/07 12:32:07;;;;;;;11.97;9.40;;;26.10;99.90;;;;;;5008581;28;20022;-78
2021/06/07 12:34:34;;;;;;;25.52;10.30;;;25.70;99.90;;;;;;5009408;28;20033;-79
2021/06/07 12:37:01;;;;;;;13.25;9.93;;;25.10;99.90;;;;;;5010171;28;20047;-79
2021/06/07 12:39:27;;;;;;;18.13;9.30;;;24.40;99.90;;;;;;5009738;28;20076;-78